createdAt,value
2019-03-28T00:01:59.517Z,6.90
2019-03-28T00:04:25.660Z,6.90
2019-03-28T00:06:51.843Z,7.00
2019-03-28T00:09:18.054Z,6.90
2019-03-28T00:11:44.198Z,7.00
2019-03-28T00:14:10.395Z,7.00
2019-03-28T00:16:36.503Z,6.90
2019-03-28T00:19:02.612Z,6.90
2019-03-28T00:21:28.906Z,6.80
2019-03-28T00:23:57.287Z,6.80
2019-03-28T00:26:30.166Z,6.90
2019-03-28T00:28:51.531Z,6.80
2019-03-28T00:31:17.677Z,6.70
2019-03-28T00:33:44.363Z,6.70
2019-03-28T00:36:10.647Z,6.70
2019-03-28T00:38:36.857Z,6.60
2019-03-28T00:41:02.969Z,6.60
2019-03-28T00:43:29.121Z,6.60
2019-03-28T00:45:56.202Z,6.60
2019-03-28T00:48:22.828Z,6.50
2019-03-28T00:50:48.947Z,6.50
2019-03-28T00:53:15.126Z,6.50
2019-03-28T00:55:41.202Z,6.50
2019-03-28T00:58:07.346Z,6.50
2019-03-28T01:00:33.533Z,6.40
2019-03-28T01:02:59.672Z,6.40
2019-03-28T01:05:25.799Z,6.30
2019-03-28T01:07:52.139Z,6.30
2019-03-28T01:10:18.280Z,6.20
2019-03-28T01:12:44.369Z,6.20
2019-03-28T01:15:10.671Z,6.10
2019-03-28T01:17:36.793Z,6.20
2019-03-28T01:20:06.578Z,6.20
2019-03-28T01:22:32.801Z,6.10
2019-03-28T01:24:59.037Z,6.00
2019-03-28T01:27:25.242Z,6.10
2019-03-28T01:29:51.747Z,6.10
2019-03-28T01:32:17.932Z,6.20
2019-03-28T01:34:44.025Z,6.10
2019-03-28T01:37:10.147Z,6.10
2019-03-28T01:39:36.377Z,6.10
2019-03-28T01:42:02.494Z,6.20
2019-03-28T01:44:28.650Z,6.20
2019-03-28T01:46:54.837Z,6.10
2019-03-28T01:49:20.928Z,6.10
2019-03-28T01:51:47.029Z,6.00
2019-03-28T01:54:13.102Z,6.00
2019-03-28T01:56:39.249Z,5.90
2019-03-28T01:59:05.417Z,5.90
2019-03-28T02:01:31.511Z,5.90
2019-03-28T02:03:57.577Z,5.90
2019-03-28T02:06:23.784Z,5.70
2019-03-28T02:08:49.855Z,5.70
2019-03-28T02:11:15.941Z,5.60
2019-03-28T02:13:42.020Z,5.60
2019-03-28T02:16:08.197Z,5.70
2019-03-28T02:18:34.357Z,5.70
2019-03-28T02:21:01.269Z,5.70
2019-03-28T02:23:27.641Z,5.60
2019-03-28T02:25:53.726Z,5.70
2019-03-28T02:28:19.807Z,5.90
2019-03-28T02:30:46.040Z,5.70
2019-03-28T02:33:12.255Z,5.70
2019-03-28T02:35:38.487Z,5.60
2019-03-28T02:38:04.748Z,5.50
2019-03-28T02:40:30.974Z,5.40
2019-03-28T02:42:57.204Z,5.50
2019-03-28T02:45:23.467Z,5.50
2019-03-28T02:47:49.545Z,5.60
2019-03-28T02:50:15.683Z,5.70
2019-03-28T02:52:41.884Z,5.80
2019-03-28T02:55:08.289Z,5.80
2019-03-28T02:57:41.499Z,5.80
2019-03-28T03:00:06.202Z,5.80
2019-03-28T03:02:32.675Z,6.00
2019-03-28T03:04:58.964Z,6.00
2019-03-28T03:07:25.132Z,6.10
2019-03-28T03:09:51.605Z,6.10
2019-03-28T03:12:18.210Z,6.00
2019-03-28T03:14:44.334Z,5.80
2019-03-28T03:17:10.428Z,5.80
2019-03-28T03:19:36.565Z,5.90
2019-03-28T03:22:03.161Z,5.90
2019-03-28T03:24:29.533Z,5.90
2019-03-28T03:26:55.764Z,5.80
2019-03-28T03:29:21.992Z,5.80
2019-03-28T03:31:48.421Z,5.70
2019-03-28T03:34:14.509Z,5.70
2019-03-28T03:36:40.631Z,5.60
2019-03-28T03:39:07.527Z,5.60
2019-03-28T03:41:33.605Z,5.60
2019-03-28T03:43:59.747Z,5.60
2019-03-28T03:46:25.938Z,5.60
2019-03-28T03:48:52.080Z,5.60
2019-03-28T03:51:18.220Z,5.60
2019-03-28T03:53:44.419Z,5.60
2019-03-28T03:56:10.649Z,5.60
2019-03-28T03:58:36.816Z,5.60
2019-03-28T04:01:03.015Z,5.60
2019-03-28T04:03:29.632Z,5.60
2019-03-28T04:05:56.032Z,5.50
2019-03-28T04:08:22.163Z,5.40
2019-03-28T04:10:48.400Z,5.40
2019-03-28T04:13:14.487Z,5.40
2019-03-28T04:15:40.735Z,5.40
2019-03-28T04:18:06.932Z,5.30
2019-03-28T04:20:33.165Z,5.30
2019-03-28T04:22:59.378Z,5.20
2019-03-28T04:25:25.469Z,5.40
2019-03-28T04:27:51.588Z,5.50
2019-03-28T04:30:17.719Z,5.40
2019-03-28T04:32:43.850Z,5.40
2019-03-28T04:35:10.244Z,5.50
2019-03-28T04:37:36.349Z,5.40
2019-03-28T04:40:06.268Z,5.40
2019-03-28T04:42:32.402Z,5.50
2019-03-28T04:44:58.657Z,5.60
2019-03-28T04:47:24.734Z,5.50
2019-03-28T04:49:50.870Z,5.50
2019-03-28T04:52:16.992Z,5.40
2019-03-28T04:54:43.094Z,5.50
2019-03-28T04:57:09.244Z,5.50
2019-03-28T04:59:35.320Z,5.50
2019-03-28T05:02:03.706Z,5.50
2019-03-28T05:04:29.549Z,5.60
2019-03-28T05:06:55.632Z,5.70
2019-03-28T05:09:21.861Z,5.80
2019-03-28T05:11:47.980Z,5.70
2019-03-28T05:14:14.040Z,5.60
2019-03-28T05:16:40.250Z,5.70
2019-03-28T05:19:06.376Z,5.80
2019-03-28T05:21:35.274Z,5.80
2019-03-28T05:24:01.619Z,5.70
2019-03-28T05:26:27.726Z,5.90
2019-03-28T05:28:57.765Z,5.80
2019-03-28T05:31:22.636Z,5.90
2019-03-28T05:33:48.765Z,6.00
2019-03-28T05:36:14.893Z,5.90
2019-03-28T05:38:41.081Z,5.80
2019-03-28T05:41:07.280Z,5.80
2019-03-28T05:43:33.350Z,6.00
2019-03-28T05:45:59.497Z,6.20
2019-03-28T05:48:25.594Z,6.20
2019-03-28T05:50:51.783Z,6.10
2019-03-28T05:53:17.862Z,6.00
2019-03-28T05:55:43.986Z,6.00
2019-03-28T05:58:10.105Z,6.10
2019-03-28T06:00:38.876Z,6.00
2019-03-28T06:03:04.357Z,6.00
2019-03-28T06:05:30.445Z,6.00
2019-03-28T06:07:58.957Z,5.90
2019-03-28T06:10:25.345Z,5.90
2019-03-28T06:12:51.616Z,5.90
2019-03-28T06:15:17.754Z,5.70
2019-03-28T06:17:43.981Z,5.90
2019-03-28T06:20:10.765Z,6.00
2019-03-28T06:22:36.892Z,6.00
2019-03-28T06:25:05.751Z,5.80
2019-03-28T06:27:32.020Z,6.00
2019-03-28T06:29:58.231Z,6.10
2019-03-28T06:32:24.685Z,6.30
2019-03-28T06:34:50.835Z,6.40
2019-03-28T06:37:17.108Z,6.50
2019-03-28T06:39:43.303Z,6.70
2019-03-28T06:42:09.445Z,6.70
2019-03-28T06:44:35.524Z,6.90
2019-03-28T06:47:01.629Z,6.90
2019-03-28T06:49:27.805Z,6.90
2019-03-28T06:51:54.014Z,6.90
2019-03-28T06:54:20.145Z,7.10
2019-03-28T06:56:46.335Z,7.20
2019-03-28T06:59:12.537Z,7.30
2019-03-28T07:01:38.601Z,7.40
2019-03-28T07:04:04.746Z,7.40
2019-03-28T07:06:30.821Z,7.50
2019-03-28T07:08:56.935Z,7.70
2019-03-28T07:11:23.156Z,7.70
2019-03-28T07:13:49.229Z,7.80
2019-03-28T07:16:15.375Z,7.90
2019-03-28T07:18:41.554Z,7.90
2019-03-28T07:21:07.706Z,7.90
2019-03-28T07:23:33.779Z,7.80
2019-03-28T07:25:59.917Z,7.80
2019-03-28T07:28:26.029Z,8.10
2019-03-28T07:30:52.170Z,8.40
2019-03-28T07:33:18.240Z,8.60
2019-03-28T07:35:44.357Z,8.90
2019-03-28T07:38:10.430Z,8.90
2019-03-28T07:40:36.577Z,8.80
2019-03-28T07:43:02.800Z,8.50
2019-03-28T07:45:29.053Z,8.40
2019-03-28T07:47:55.252Z,8.40
2019-03-28T07:50:21.362Z,8.10
2019-03-28T07:52:47.535Z,8.10
2019-03-28T07:55:16.498Z,8.20
2019-03-28T07:57:42.002Z,8.30
2019-03-28T08:00:10.023Z,8.50
2019-03-28T08:02:36.261Z,8.50
2019-03-28T08:05:05.295Z,8.70
2019-03-28T08:07:43.991Z,9.00
2019-03-28T08:09:59.800Z,9.10
2019-03-28T08:12:25.901Z,9.20
2019-03-28T08:14:52.001Z,9.30
2019-03-28T08:17:18.415Z,9.40
2019-03-28T08:19:44.507Z,9.50
2019-03-28T08:22:10.590Z,9.50
2019-03-28T08:24:36.738Z,9.60
2019-03-28T08:27:02.946Z,9.60
2019-03-28T08:29:29.042Z,9.60
2019-03-28T08:31:55.858Z,9.60
2019-03-28T08:34:22.290Z,9.60
2019-03-28T08:36:49.492Z,9.70
2019-03-28T08:39:15.720Z,9.80
2019-03-28T08:41:41.862Z,9.80
2019-03-28T08:44:07.933Z,9.90
2019-03-28T08:46:34.200Z,9.90
2019-03-28T08:49:00.436Z,9.90
2019-03-28T08:51:27.441Z,9.70
2019-03-28T08:53:53.738Z,9.90
2019-03-28T08:56:19.981Z,10.10
2019-03-28T08:58:46.161Z,10.10
2019-03-28T09:01:12.391Z,10.30
2019-03-28T09:03:38.636Z,10.50
2019-03-28T09:06:04.923Z,10.60
2019-03-28T09:08:31.068Z,10.60
2019-03-28T09:10:57.259Z,10.60
2019-03-28T09:13:23.386Z,10.50
2019-03-28T09:15:49.609Z,10.60
2019-03-28T09:18:15.715Z,10.60
2019-03-28T09:20:41.842Z,10.60
2019-03-28T09:23:07.986Z,10.80
2019-03-28T09:25:34.175Z,11.10
2019-03-28T09:28:00.300Z,11.10
2019-03-28T09:30:46.852Z,11.00
2019-03-28T09:33:01.399Z,11.20
2019-03-28T09:35:28.701Z,11.30
2019-03-28T09:37:54.883Z,11.30
2019-03-28T09:40:21.136Z,11.50
2019-03-28T09:42:47.303Z,11.70
2019-03-28T09:45:13.510Z,11.90
2019-03-28T09:47:39.669Z,12.10
2019-03-28T09:50:06.003Z,12.30
2019-03-28T09:52:32.183Z,12.20
2019-03-28T09:54:58.397Z,11.70
2019-03-28T09:57:24.520Z,11.90
2019-03-28T09:59:50.757Z,11.90
2019-03-28T10:02:16.977Z,12.00
2019-03-28T10:04:43.169Z,12.00
2019-03-28T10:07:09.269Z,11.90
2019-03-28T10:09:35.527Z,11.80
2019-03-28T10:12:01.854Z,11.70
2019-03-28T10:14:28.058Z,11.60
2019-03-28T10:16:54.189Z,11.80
2019-03-28T10:19:20.265Z,11.80
2019-03-28T10:21:46.373Z,12.00
2019-03-28T10:24:12.488Z,12.20
2019-03-28T10:26:39.449Z,12.10
2019-03-28T10:29:05.948Z,12.30
2019-03-28T10:31:32.079Z,12.00
2019-03-28T10:33:58.252Z,11.70
2019-03-28T10:36:27.583Z,12.10
2019-03-28T10:38:52.409Z,12.50
2019-03-28T10:41:18.787Z,12.70
2019-03-28T10:43:44.927Z,12.90
2019-03-28T10:46:11.261Z,13.10
2019-03-28T10:48:37.395Z,13.10
2019-03-28T10:51:03.567Z,13.00
2019-03-28T10:53:30.212Z,13.20
2019-03-28T10:55:56.701Z,13.30
2019-03-28T10:58:22.809Z,13.50
2019-03-28T11:00:49.001Z,13.50
2019-03-28T11:03:15.137Z,13.50
2019-03-28T11:05:41.433Z,13.40
2019-03-28T11:08:07.565Z,13.40
2019-03-28T11:10:34.048Z,13.10
2019-03-28T11:13:00.235Z,12.70
2019-03-28T11:15:26.675Z,12.60
2019-03-28T11:17:52.833Z,12.70
2019-03-28T11:20:19.319Z,13.00
2019-03-28T11:22:45.599Z,13.00
2019-03-28T11:25:12.014Z,13.10
2019-03-28T11:27:38.241Z,13.20
2019-03-28T11:30:06.413Z,13.40
2019-03-28T11:32:35.737Z,13.20
2019-03-28T11:35:00.691Z,13.40
2019-03-28T11:37:28.080Z,13.40
2019-03-28T11:39:54.471Z,13.40
2019-03-28T11:42:20.698Z,13.60
2019-03-28T11:44:46.936Z,13.60
2019-03-28T11:47:13.118Z,13.60
2019-03-28T11:49:39.255Z,13.90
2019-03-28T11:52:05.421Z,14.10
2019-03-28T11:54:31.565Z,14.00
2019-03-28T11:56:58.247Z,14.00
2019-03-28T11:59:24.357Z,13.30
2019-03-28T12:01:59.722Z,13.40
2019-03-28T12:04:18.438Z,13.70
2019-03-28T12:06:44.668Z,14.10
2019-03-28T12:09:12.241Z,14.60
2019-03-28T12:11:38.569Z,14.80
2019-03-28T12:14:04.838Z,15.00
2019-03-28T12:16:30.925Z,14.80
2019-03-28T12:18:57.053Z,15.00
2019-03-28T12:21:23.255Z,15.00
2019-03-28T12:23:49.378Z,15.10
2019-03-28T12:26:15.562Z,15.00
2019-03-28T12:28:41.671Z,14.90
2019-03-28T12:31:07.886Z,14.60
2019-03-28T12:33:33.965Z,14.50
2019-03-28T12:36:00.153Z,14.10
2019-03-28T12:38:26.239Z,14.10
2019-03-28T12:40:52.370Z,14.00
2019-03-28T12:43:18.499Z,14.00
2019-03-28T12:45:44.749Z,13.70
2019-03-28T12:48:10.964Z,13.80
2019-03-28T12:50:37.104Z,14.00
2019-03-28T12:53:03.324Z,14.00
2019-03-28T12:55:29.536Z,14.20
2019-03-28T12:57:56.687Z,14.00
2019-03-28T13:00:33.756Z,14.00
2019-03-28T13:02:59.954Z,14.10
2019-03-28T13:05:26.308Z,14.30
2019-03-28T13:07:52.443Z,14.20
2019-03-28T13:10:18.609Z,14.20
2019-03-28T13:12:44.716Z,14.20
2019-03-28T13:15:11.002Z,14.20
2019-03-28T13:17:37.134Z,13.80
2019-03-28T13:20:08.944Z,13.70
2019-03-28T13:22:35.231Z,13.70
2019-03-28T13:25:01.525Z,13.60
2019-03-28T13:27:27.615Z,13.50
2019-03-28T13:29:55.164Z,13.60
2019-03-28T13:32:21.494Z,13.50
2019-03-28T13:34:47.713Z,13.30
2019-03-28T13:37:13.960Z,13.30
2019-03-28T13:39:40.160Z,13.30
2019-03-28T13:42:06.260Z,13.30
2019-03-28T13:44:32.513Z,13.40
2019-03-28T13:46:58.917Z,13.40
2019-03-28T13:49:25.098Z,13.40
2019-03-28T13:51:51.416Z,13.40
2019-03-28T13:54:17.529Z,13.30
2019-03-28T13:56:43.725Z,13.40
2019-03-28T13:59:09.835Z,13.40
2019-03-28T14:01:36.130Z,13.40
2019-03-28T14:04:02.468Z,13.30
2019-03-28T14:06:28.567Z,13.40
2019-03-28T14:08:55.038Z,13.30
2019-03-28T14:11:21.262Z,13.40
2019-03-28T14:13:47.624Z,13.50
2019-03-28T14:16:14.034Z,13.60
2019-03-28T14:18:40.231Z,13.60
2019-03-28T14:21:06.296Z,13.70
2019-03-28T14:23:32.444Z,13.70
2019-03-28T14:25:58.560Z,13.60
2019-03-28T14:28:24.749Z,13.60
2019-03-28T14:30:50.872Z,13.70
2019-03-28T14:33:16.975Z,13.70
2019-03-28T14:35:43.066Z,13.80
2019-03-28T14:38:09.331Z,13.90
2019-03-28T14:40:35.561Z,13.70
2019-03-28T14:43:01.785Z,13.40
2019-03-28T14:45:28.045Z,13.60
2019-03-28T14:47:54.145Z,13.60
2019-03-28T14:50:24.240Z,13.60
2019-03-28T14:52:50.596Z,13.70
2019-03-28T14:55:16.763Z,13.70
2019-03-28T14:57:43.377Z,13.60
2019-03-28T15:00:31.462Z,13.50
2019-03-28T15:02:57.574Z,13.40
2019-03-28T15:05:23.724Z,13.30
2019-03-28T15:07:49.906Z,13.20
2019-03-28T15:10:16.053Z,13.20
2019-03-28T15:12:42.188Z,13.30
2019-03-28T15:15:08.565Z,13.40
2019-03-28T15:17:34.691Z,13.40
2019-03-28T15:20:01.041Z,13.40
2019-03-28T15:22:27.147Z,13.40
2019-03-28T15:24:53.235Z,13.40
2019-03-28T15:27:19.327Z,13.50
2019-03-28T15:29:45.481Z,13.50
2019-03-28T15:32:11.689Z,13.30
2019-03-28T15:34:37.845Z,13.50
2019-03-28T15:37:04.418Z,13.40
2019-03-28T15:39:31.611Z,13.10
2019-03-28T15:41:58.057Z,13.20
2019-03-28T15:44:24.161Z,13.10
2019-03-28T15:46:50.968Z,13.10
2019-03-28T15:49:17.808Z,13.20
2019-03-28T15:51:43.957Z,13.20
2019-03-28T15:54:10.159Z,13.20
2019-03-28T15:56:36.326Z,13.10
2019-03-28T15:59:02.553Z,13.10
2019-03-28T16:01:28.752Z,13.00
2019-03-28T16:03:54.858Z,12.90
2019-03-28T16:06:22.415Z,13.00
2019-03-28T16:08:49.001Z,13.00
2019-03-28T16:11:15.115Z,12.90
2019-03-28T16:13:41.263Z,12.90
2019-03-28T16:16:07.351Z,13.00
2019-03-28T16:18:33.478Z,13.00
2019-03-28T16:20:59.607Z,13.00
2019-03-28T16:23:25.818Z,13.00
2019-03-28T16:25:51.894Z,12.90
2019-03-28T16:28:18.003Z,12.90
2019-03-28T16:30:44.077Z,12.90
2019-03-28T16:33:10.287Z,12.90
2019-03-28T16:35:36.513Z,13.00
2019-03-28T16:38:02.742Z,12.90
2019-03-28T16:40:28.913Z,12.90
2019-03-28T16:42:55.131Z,12.80
2019-03-28T16:45:21.277Z,12.70
2019-03-28T16:47:47.453Z,12.70
2019-03-28T16:50:13.989Z,12.70
2019-03-28T16:52:40.243Z,12.60
2019-03-28T16:55:06.640Z,12.60
2019-03-28T16:57:32.879Z,12.70
2019-03-28T16:59:59.098Z,12.70
2019-03-28T17:02:25.263Z,12.60
2019-03-28T17:04:51.415Z,12.60
2019-03-28T17:07:17.779Z,12.60
2019-03-28T17:09:44.532Z,12.60
2019-03-28T17:12:10.754Z,12.50
2019-03-28T17:14:36.882Z,12.40
2019-03-28T17:17:02.956Z,12.40
2019-03-28T17:19:29.089Z,12.30
2019-03-28T17:21:55.252Z,12.30
2019-03-28T17:24:21.481Z,12.30
2019-03-28T17:27:07.588Z,12.30
2019-03-28T17:29:33.763Z,12.20
2019-03-28T17:31:59.863Z,12.20
2019-03-28T17:34:34.601Z,12.20
2019-03-28T17:36:54.033Z,12.10
2019-03-28T17:39:20.246Z,12.10
2019-03-28T17:41:46.388Z,12.10
2019-03-28T17:44:14.486Z,12.10
2019-03-28T17:46:40.683Z,12.00
2019-03-28T17:49:06.765Z,12.10
2019-03-28T17:51:32.898Z,12.10
2019-03-28T17:53:58.984Z,12.10
2019-03-28T17:56:25.078Z,12.10
2019-03-28T17:58:51.247Z,12.00
2019-03-28T18:01:17.434Z,12.00
2019-03-28T18:03:43.695Z,12.00
2019-03-28T18:06:09.950Z,11.90
2019-03-28T18:08:36.076Z,11.90
2019-03-28T18:11:02.429Z,11.90
2019-03-28T18:13:28.622Z,11.90
2019-03-28T18:15:54.758Z,11.80
2019-03-28T18:18:21.014Z,11.80
2019-03-28T18:20:47.241Z,11.80
2019-03-28T18:23:13.401Z,11.80
2019-03-28T18:25:39.555Z,11.80
2019-03-28T18:28:05.680Z,11.80
2019-03-28T18:30:32.677Z,11.90
2019-03-28T18:32:58.970Z,11.80
2019-03-28T18:35:25.173Z,11.80
2019-03-28T18:37:51.312Z,11.90
2019-03-28T18:40:17.765Z,11.90
2019-03-28T18:42:44.162Z,11.80
2019-03-28T18:45:12.721Z,11.80
2019-03-28T18:47:38.902Z,11.70
2019-03-28T18:50:05.632Z,11.70
2019-03-28T18:52:31.747Z,11.70
2019-03-28T18:54:57.920Z,11.60
2019-03-28T18:57:24.187Z,11.60
2019-03-28T18:59:50.732Z,11.60
2019-03-28T19:02:16.998Z,11.50
2019-03-28T19:04:43.152Z,11.50
2019-03-28T19:07:10.012Z,11.50
2019-03-28T19:09:36.426Z,11.50
2019-03-28T19:12:02.698Z,11.50
2019-03-28T19:14:28.787Z,11.50
2019-03-28T19:16:54.922Z,11.40
2019-03-28T19:19:21.072Z,11.40
2019-03-28T19:21:47.244Z,11.40
2019-03-28T19:24:13.398Z,11.40
2019-03-28T19:26:39.548Z,11.40
2019-03-28T19:29:05.822Z,11.40
2019-03-28T19:31:31.949Z,11.50
2019-03-28T19:33:58.078Z,11.50
2019-03-28T19:36:24.562Z,11.40
2019-03-28T19:38:50.931Z,11.30
2019-03-28T19:41:17.112Z,11.40
2019-03-28T19:43:43.268Z,11.40
2019-03-28T19:46:09.460Z,11.40
2019-03-28T19:48:35.690Z,11.30
2019-03-28T19:51:02.279Z,11.30
2019-03-28T19:53:28.650Z,11.20
2019-03-28T19:55:54.964Z,11.10
2019-03-28T19:58:21.435Z,11.10
2019-03-28T20:00:47.677Z,11.10
2019-03-28T20:03:13.870Z,11.10
2019-03-28T20:05:47.366Z,11.10
2019-03-28T20:08:15.528Z,11.10
2019-03-28T20:10:36.038Z,11.00
2019-03-28T20:13:05.213Z,11.00
2019-03-28T20:15:30.591Z,10.90
2019-03-28T20:17:56.808Z,10.90
2019-03-28T20:20:23.160Z,10.80
2019-03-28T20:22:49.331Z,10.80
2019-03-28T20:25:15.500Z,10.70
2019-03-28T20:27:41.741Z,10.70
2019-03-28T20:30:08.930Z,10.60
2019-03-28T20:32:35.158Z,10.60
2019-03-28T20:35:01.385Z,10.50
2019-03-28T20:37:27.724Z,10.50
2019-03-28T20:39:53.886Z,10.40
2019-03-28T20:42:20.039Z,10.40
2019-03-28T20:44:46.221Z,10.40
2019-03-28T20:47:12.449Z,10.30
2019-03-28T20:49:38.740Z,10.20
2019-03-28T20:52:04.981Z,10.10
2019-03-28T20:54:51.043Z,9.90
2019-03-28T20:57:17.216Z,9.80
2019-03-28T20:59:43.363Z,9.60
2019-03-28T21:02:09.605Z,9.60
2019-03-28T21:04:38.526Z,9.40
2019-03-28T21:07:04.704Z,9.40
2019-03-28T21:09:30.862Z,9.50
2019-03-28T21:11:57.055Z,9.40
2019-03-28T21:14:23.274Z,9.50
2019-03-28T21:16:49.379Z,9.40
2019-03-28T21:19:15.439Z,9.40
2019-03-28T21:21:44.453Z,9.30
2019-03-28T21:24:09.515Z,9.30
2019-03-28T21:26:35.621Z,9.20
2019-03-28T21:29:01.718Z,9.00
2019-03-28T21:31:27.803Z,8.90
2019-03-28T21:33:55.035Z,9.10
2019-03-28T21:36:29.653Z,9.10
2019-03-28T21:38:49.429Z,9.00
2019-03-28T21:41:15.765Z,9.00
2019-03-28T21:43:42.009Z,8.80
2019-03-28T21:46:08.286Z,8.70
2019-03-28T21:48:34.454Z,8.80
2019-03-28T21:51:00.552Z,8.80
2019-03-28T21:53:26.655Z,8.70
2019-03-28T21:55:55.424Z,8.60
2019-03-28T21:58:20.920Z,8.70
2019-03-28T22:00:47.054Z,8.60
2019-03-28T22:03:13.407Z,8.70
2019-03-28T22:05:39.571Z,8.50
2019-03-28T22:08:06.925Z,8.50
2019-03-28T22:10:33.271Z,8.50
2019-03-28T22:12:59.415Z,8.40
2019-03-28T22:15:25.640Z,8.40
2019-03-28T22:17:51.779Z,8.30
2019-03-28T22:20:18.226Z,8.10
2019-03-28T22:22:44.347Z,8.00
2019-03-28T22:25:10.764Z,8.00
2019-03-28T22:27:36.839Z,8.00
2019-03-28T22:30:04.747Z,7.90
2019-03-28T22:32:30.878Z,8.00
2019-03-28T22:34:57.124Z,8.10
2019-03-28T22:37:23.622Z,8.00
2019-03-28T22:39:49.753Z,7.90
2019-03-28T22:42:15.923Z,8.00
2019-03-28T22:44:42.004Z,7.90
2019-03-28T22:47:08.163Z,7.80
2019-03-28T22:49:34.438Z,7.60
2019-03-28T22:52:00.608Z,7.50
2019-03-28T22:54:26.829Z,7.50
2019-03-28T22:56:53.131Z,7.50
2019-03-28T22:59:19.247Z,7.40
2019-03-28T23:01:45.450Z,7.40
2019-03-28T23:04:12.875Z,7.40
2019-03-28T23:06:39.197Z,7.40
2019-03-28T23:09:06.015Z,7.50
2019-03-28T23:11:32.206Z,7.40
2019-03-28T23:13:58.543Z,7.30
2019-03-28T23:16:24.684Z,7.20
2019-03-28T23:18:50.906Z,7.10
2019-03-28T23:21:17.012Z,7.20
2019-03-28T23:23:43.186Z,7.40
2019-03-28T23:26:09.273Z,7.10
2019-03-28T23:28:35.400Z,7.00
2019-03-28T23:31:01.479Z,6.90
2019-03-28T23:33:27.561Z,6.90
2019-03-28T23:35:53.656Z,6.80
2019-03-28T23:38:20.002Z,6.70
2019-03-28T23:40:46.343Z,6.60
2019-03-28T23:43:12.426Z,6.60
2019-03-28T23:45:38.503Z,6.60
2019-03-28T23:48:04.603Z,6.60
2019-03-28T23:50:30.717Z,6.50
2019-03-28T23:52:56.817Z,6.50
2019-03-28T23:55:22.891Z,6.40
2019-03-28T23:57:49.020Z,6.60
